Hillsdale, Oklahoma
Current Conditions -  °F | °C
As of 5:50 PM on Monday 22 Dec 2014 (Local Time) from KWDG Reporting Station
Scattered Clouds Scattered Clouds  
Wind Chill: 43°   Ceiling: Unl
Heat Index: 46°   Visibility: 10mi
Dew Point: 36°   Wind: 7mph
Humidity: 66%   Direction: 210°SSW
Pressure: 29.64"   Gusts: NA
Location:  36.56°N, 97.99°W
Report Text: KWDG 222350Z 21006KT 10SM FEW130 SCT180 08/02 A2964
Loading
Personal Weather Stations






























Interactive Weather Map New forecast layout! Learn more

10-Day Weather Forecast

Advertisements
Track Severe Weather on mobile